Time;durP1;ratioP1;P1;durP2;ratioP2;P2;SDS_P1;SDS_P2;PMS_P1;PMS_P2;Temp;Humidity;BMP_temperature;BMP_pressure;BME280_temperature;BME280_humidity;BME280_pressure;Samples;Min_cycle;Max_cycle;Signal;HPM_P1;HPM_P2
2023/12/04 00:01:09;;;;;;;8.88;5.55;;;;;;;-0.50;63.33;95207.34;5090066;28;20081;-72
2023/12/04 00:03:35;;;;;;;8.07;5.15;;;;;;;-0.41;62.34;95215.59;5090100;28;20409;-71
2023/12/04 00:06:00;;;;;;;8.57;5.53;;;;;;;-0.46;63.05;95224.22;5073411;28;20028;-71
2023/12/04 00:08:25;;;;;;;7.88;4.93;;;;;;;-0.71;64.08;95218.25;5091286;28;20035;-72
2023/12/04 00:10:51;;;;;;;7.72;5.10;;;;;;;-0.79;64.29;95231.25;5089136;28;20023;-71
2023/12/04 00:13:17;;;;;;;8.35;4.93;;;;;;;-0.82;64.95;95228.81;5090180;28;20468;-71
2023/12/04 00:15:43;;;;;;;7.15;4.40;;;;;;;-0.93;62.53;95235.97;5091312;28;20028;-71
2023/12/04 00:18:09;;;;;;;8.32;5.43;;;;;;;-0.82;62.80;95236.44;5088572;28;20501;-71
2023/12/04 00:20:35;;;;;;;7.35;4.72;;;;;;;-0.97;62.38;95232.69;5090180;28;20102;-71
2023/12/04 00:23:00;;;;;;;7.85;5.63;;;;;;;-0.93;61.78;95231.69;5110757;28;20200;-71
2023/12/04 00:25:26;;;;;;;7.28;4.95;;;;;;;-0.79;61.57;95235.53;5112037;28;20478;-72
2023/12/04 00:27:51;;;;;;;8.75;5.50;;;;;;;-0.83;61.55;95237.34;5100375;28;20039;-71
2023/12/04 00:30:17;;;;;;;6.35;4.47;;;;;;;-0.82;62.73;95239.00;5099853;28;20050;-71
2023/12/04 00:32:43;;;;;;;8.88;5.35;;;;;;;-0.76;61.51;95235.44;5110457;28;20054;-71
2023/12/04 00:35:08;;;;;;;6.93;5.10;;;;;;;-0.82;61.71;95235.63;5111781;28;20031;-72
2023/12/04 00:37:38;;;;;;;7.50;4.75;;;;;;;-0.62;60.58;95243.47;5094736;28;20560;-71
2023/12/04 00:40:04;;;;;;;8.50;5.55;;;;;;;-0.72;62.06;95242.13;5091053;27;20066;-71
2023/12/04 00:42:30;;;;;;;7.38;5.47;;;;;;;-0.57;61.61;95225.47;5089778;28;20080;-72
2023/12/04 00:44:55;;;;;;;8.05;5.25;;;;;;;-0.47;61.11;95253.19;5089885;28;20032;-71
2023/12/04 00:47:21;;;;;;;6.93;4.60;;;;;;;-0.54;61.58;95246.59;5088652;28;20024;-71
2023/12/04 00:49:46;;;;;;;7.20;4.65;;;;;;;-0.80;61.08;95237.25;5072933;28;20421;-72
2023/12/04 00:52:12;;;;;;;11.80;6.30;;;;;;;-0.82;61.08;95241.56;5089713;28;20043;-71
2023/12/04 00:54:40;;;;;;;11.90;5.80;;;;;;;-0.72;60.04;95268.47;5071527;28;20016;-71
2023/12/04 00:57:06;;;;;;;10.30;5.68;;;;;;;-0.48;60.53;95269.38;5073086;28;20478;-72
2023/12/04 00:59:31;;;;;;;7.15;4.57;;;;;;;-0.56;60.84;95266.22;5072728;28;20032;-72
2023/12/04 01:01:57;;;;;;;7.68;4.47;;;;;;;-0.74;59.36;95265.13;5089227;28;20036;-71
2023/12/04 01:04:22;;;;;;;9.82;4.63;;;;;;;-0.66;58.80;95264.88;5088921;28;20031;-71
2023/12/04 01:06:47;;;;;;;5.97;4.10;;;;;;;-0.61;59.09;95254.50;5093829;28;20028;-71
2023/12/04 01:09:13;;;;;;;5.68;3.85;;;;;;;-0.38;59.16;95264.81;5095073;28;20039;-72
2023/12/04 01:11:38;;;;;;;8.82;4.00;;;;;;;-0.38;58.60;95261.44;5115259;28;20047;-71
2023/12/04 01:14:04;;;;;;;9.57;5.45;;;;;;;-0.35;57.62;95271.53;5079004;28;20081;-71
2023/12/04 01:16:29;;;;;;;7.32;4.72;;;;;;;-0.43;58.08;95273.50;5108791;28;20119;-71
2023/12/04 01:18:55;;;;;;;6.70;4.15;;;;;;;-0.43;57.65;95276.06;5115179;28;20481;-72
2023/12/04 01:21:20;;;;;;;6.63;4.07;;;;;;;-0.27;57.26;95270.41;5109306;28;20058;-71
2023/12/04 01:23:46;;;;;;;6.70;4.68;;;;;;;-0.25;58.42;95283.13;5093152;28;20024;-72
2023/12/04 01:26:11;;;;;;;7.97;5.10;;;;;;;-0.27;58.52;95275.50;5093401;28;20033;-71
2023/12/04 01:28:37;;;;;;;7.13;4.13;;;;;;;-0.14;57.83;95265.72;5075691;28;20036;-71
2023/12/04 01:31:02;;;;;;;6.05;4.13;;;;;;;-0.35;57.85;95271.53;5091863;28;20032;-72
2023/12/04 01:33:28;;;;;;;7.53;4.65;;;;;;;-0.95;57.77;95258.13;5094364;28;20055;-72
2023/12/04 01:35:54;;;;;;;7.47;4.65;;;;;;;-0.96;58.31;95272.59;5093257;28;20028;-72
2023/12/04 01:38:19;;;;;;;8.25;4.75;;;;;;;-0.97;58.34;95254.81;5093086;28;20020;-72
2023/12/04 01:40:45;;;;;;;8.07;5.18;;;;;;;-0.71;57.78;95280.31;5092591;28;20036;-72
2023/12/04 01:43:10;;;;;;;6.65;4.43;;;;;;;-0.65;57.29;95276.75;5094202;28;20024;-72
2023/12/04 01:45:35;;;;;;;7.40;4.88;;;;;;;-0.67;57.61;95260.63;5098209;28;20486;-71
2023/12/04 01:48:01;;;;;;;7.50;4.90;;;;;;;-0.71;57.47;95274.38;5092981;28;20031;-71
2023/12/04 01:50:26;;;;;;;6.72;4.40;;;;;;;-0.88;57.69;95274.09;5071409;28;20036;-72
2023/12/04 01:52:52;;;;;;;7.45;4.43;;;;;;;-1.03;57.96;95278.78;5057554;28;20033;-71
2023/12/04 01:55:17;;;;;;;7.03;4.93;;;;;;;-0.96;58.85;95259.84;5075974;28;20028;-71
2023/12/04 01:57:43;;;;;;;5.95;4.38;;;;;;;-0.86;59.34;95270.59;5073689;28;20470;-71
2023/12/04 02:00:11;;;;;;;7.07;4.43;;;;;;;-0.69;58.58;95282.84;5077401;28;20511;-72
2023/12/04 02:02:38;;;;;;;7.25;4.40;;;;;;;-0.79;58.88;95278.91;5096422;28;20039;-72
2023/12/04 02:05:03;;;;;;;8.88;6.50;;;;;;;-0.78;58.46;95283.09;5111584;28;20032;-71
2023/12/04 02:07:29;;;;;;;8.43;4.78;;;;;;;-0.96;58.61;95277.69;5091702;28;20031;-72
2023/12/04 02:09:54;;;;;;;7.32;5.10;;;;;;;-0.93;58.27;95280.16;5092587;28;20028;-71
2023/12/04 02:12:21;;;;;;;6.72;5.20;;;;;;;-1.01;58.71;95289.75;5056582;28;20032;-71
2023/12/04 02:14:46;;;;;;;7.93;4.72;;;;;;;-0.87;58.39;95273.19;5055597;28;20021;-71
2023/12/04 02:17:11;;;;;;;7.30;4.50;;;;;;;-0.97;57.89;95288.78;5063596;28;20517;-71
2023/12/04 02:19:37;;;;;;;7.68;4.53;;;;;;;-1.01;59.00;95287.19;5109240;28;20462;-72
2023/12/04 02:22:02;;;;;;;9.00;5.47;;;;;;;-1.05;59.43;95293.28;5091973;28;20140;-71
2023/12/04 02:24:28;;;;;;;7.47;4.45;;;;;;;-1.10;59.41;95297.69;5092228;28;20046;-72
2023/12/04 02:26:56;;;;;;;8.15;4.72;;;;;;;-1.15;59.26;95286.78;5074213;28;20036;-73
2023/12/04 02:29:29;;;;;;;7.65;5.03;;;;;;;-1.12;60.19;95314.72;5075264;28;20127;-72
2023/12/04 02:31:55;;;;;;;8.25;4.78;;;;;;;-1.07;60.03;95309.50;5092143;28;20067;-71
2023/12/04 02:34:20;;;;;;;6.22;4.53;;;;;;;-1.15;59.93;95302.06;5072967;28;20107;-71
2023/12/04 02:36:46;;;;;;;6.03;4.55;;;;;;;-1.02;59.24;95294.91;5075090;28;20032;-71
2023/12/04 02:39:11;;;;;;;7.28;4.40;;;;;;;-0.94;59.24;95293.78;5091996;28;20386;-72
2023/12/04 02:41:36;;;;;;;7.40;4.43;;;;;;;-0.77;59.63;95305.19;5091773;28;20630;-71
2023/12/04 02:44:02;;;;;;;9.00;4.65;;;;;;;-0.95;59.36;95315.09;5091278;28;20486;-72
2023/12/04 02:46:27;;;;;;;7.65;4.75;;;;;;;-1.18;59.53;95297.91;5093159;28;20028;-72
2023/12/04 02:48:53;;;;;;;6.55;4.88;;;;;;;-0.97;59.78;95309.19;5091796;28;20031;-72
2023/12/04 02:51:18;;;;;;;7.22;4.38;;;;;;;-1.02;59.39;95328.91;5074861;28;20498;-72
2023/12/04 02:53:43;;;;;;;6.88;4.50;;;;;;;-1.01;59.01;95312.69;5090239;28;20429;-71
2023/12/04 02:56:09;;;;;;;7.53;4.50;;;;;;;-1.23;58.90;95312.50;5074831;28;20028;-72
2023/12/04 02:58:35;;;;;;;6.57;3.85;;;;;;;-1.08;59.07;95320.59;5092767;28;20119;-72
2023/12/04 03:01:00;;;;;;;6.85;4.30;;;;;;;-1.00;58.87;95319.50;5075529;28;20043;-72
2023/12/04 03:03:26;;;;;;;5.88;3.70;;;;;;;-1.11;58.73;95306.22;5073318;28;20032;-72
2023/12/04 03:05:51;;;;;;;6.90;4.60;;;;;;;-1.08;58.80;95321.44;5074485;28;20024;-71
2023/12/04 03:08:16;;;;;;;6.18;4.47;;;;;;;-1.01;57.80;95312.69;5091285;28;20027;-72
2023/12/04 03:10:42;;;;;;;7.30;4.32;;;;;;;-1.13;58.22;95320.72;5105716;28;20024;-72
2023/12/04 03:13:07;;;;;;;5.65;3.72;;;;;;;-1.09;57.48;95324.00;5074347;28;20031;-71
2023/12/04 03:15:33;;;;;;;7.25;4.45;;;;;;;-1.17;57.59;95322.53;5091321;28;20409;-72
2023/12/04 03:17:59;;;;;;;8.10;4.97;;;;;;;-1.13;58.00;95333.47;5090896;28;20486;-72
2023/12/04 03:20:24;;;;;;;6.93;4.05;;;;;;;-1.25;57.67;95314.28;5090216;28;20026;-71
2023/12/04 03:22:50;;;;;;;6.32;4.00;;;;;;;-1.10;58.00;95330.84;5091137;28;20036;-72
2023/12/04 03:25:15;;;;;;;5.50;4.10;;;;;;;-1.36;58.38;95334.13;5074053;28;20028;-72
2023/12/04 03:27:40;;;;;;;7.10;5.05;;;;;;;-1.37;58.31;95338.38;5091452;28;20429;-71
2023/12/04 03:30:06;;;;;;;7.68;4.57;;;;;;;-1.46;58.21;95336.09;5090364;28;20490;-72
2023/12/04 03:32:32;;;;;;;7.03;4.78;;;;;;;-1.51;58.37;95312.44;5090874;28;20056;-72
2023/12/04 03:34:57;;;;;;;8.55;5.38;;;;;;;-1.32;59.17;95334.88;5090881;28;20035;-72
2023/12/04 03:37:23;;;;;;;6.45;4.57;;;;;;;-1.29;57.79;95332.25;5090919;28;20055;-73
2023/12/04 03:39:50;;;;;;;6.95;4.80;;;;;;;-1.40;58.37;95340.19;5091081;28;20522;-72
2023/12/04 03:42:16;;;;;;;8.13;5.32;;;;;;;-1.68;59.01;95340.94;5110948;28;20122;-72
2023/12/04 03:44:41;;;;;;;7.57;4.78;;;;;;;-1.57;58.62;95345.75;5111233;28;20450;-72
2023/12/04 03:47:06;;;;;;;8.23;5.18;;;;;;;-1.65;59.16;95347.66;5072066;28;20590;-71
2023/12/04 03:49:32;;;;;;;8.98;5.10;;;;;;;-1.58;58.37;95349.19;5101991;28;20027;-72
2023/12/04 03:51:57;;;;;;;8.40;5.57;;;;;;;-1.54;59.00;95348.22;5112211;28;20459;-72
2023/12/04 03:54:23;;;;;;;7.43;3.95;;;;;;;-1.67;58.86;95349.41;5110850;28;20027;-71
2023/12/04 03:56:48;;;;;;;6.85;4.65;;;;;;;-1.82;59.30;95320.09;5092913;28;20028;-71
2023/12/04 03:59:13;;;;;;;7.78;4.85;;;;;;;-1.92;60.02;95344.13;5105964;28;20517;-72
2023/12/04 04:01:39;;;;;;;7.45;4.65;;;;;;;-1.70;59.73;95345.25;5074837;28;20081;-72
2023/12/04 04:04:04;;;;;;;7.10;4.68;;;;;;;-1.83;59.61;95351.53;5093683;28;20084;-72
2023/12/04 04:06:30;;;;;;;12.02;7.10;;;;;;;-1.76;60.39;95344.56;5106263;28;20024;-72
2023/12/04 04:08:55;;;;;;;9.13;5.93;;;;;;;-1.60;60.43;95353.47;5073340;28;20411;-72
2023/12/04 04:11:21;;;;;;;24.73;22.10;;;;;;;-1.66;60.00;95346.00;5091434;28;20021;-72
2023/12/04 04:13:46;;;;;;;10.98;8.88;;;;;;;-1.63;60.00;95356.09;5072659;28;20035;-72
2023/12/04 04:16:14;;;;;;;8.85;5.50;;;;;;;-1.73;59.26;95350.41;5101450;28;20490;-72
2023/12/04 04:18:40;;;;;;;8.40;5.03;;;;;;;-1.92;59.12;95316.09;5084043;28;20206;-72
2023/12/04 04:21:05;;;;;;;7.00;5.03;;;;;;;-1.60;60.01;95363.66;5117772;27;20051;-72
2023/12/04 04:23:31;;;;;;;7.25;5.00;;;;;;;-1.52;60.26;95360.91;5087658;28;20036;-72
2023/12/04 04:25:56;;;;;;;10.35;6.30;;;;;;;-1.75;60.16;95361.53;5068511;28;20441;-72
2023/12/04 04:28:22;;;;;;;11.50;7.60;;;;;;;-1.67;59.27;95369.78;5070936;28;20032;-72
2023/12/04 04:30:47;;;;;;;9.73;6.07;;;;;;;-1.79;59.34;95368.41;5085869;28;20116;-72
2023/12/04 04:33:12;;;;;;;9.23;5.30;;;;;;;-1.86;60.12;95347.34;5086950;28;20020;-72
2023/12/04 04:35:38;;;;;;;8.18;5.63;;;;;;;-1.75;59.71;95372.56;5083030;28;20522;-72
2023/12/04 04:38:04;;;;;;;9.63;6.30;;;;;;;-1.65;58.68;95368.03;5085103;28;20436;-72
2023/12/04 04:40:29;;;;;;;8.10;5.15;;;;;;;-1.98;58.01;95317.09;5068617;28;20482;-72
2023/12/04 04:42:55;;;;;;;7.53;5.53;;;;;;;-1.97;58.57;95354.44;5086506;28;20036;-72
2023/12/04 04:45:20;;;;;;;11.07;6.30;;;;;;;-1.74;59.17;95381.88;5067158;28;20028;-72
2023/12/04 04:47:46;;;;;;;12.77;9.80;;;;;;;-1.82;59.29;95383.78;5086474;28;20040;-72
2023/12/04 04:50:11;;;;;;;11.52;7.25;;;;;;;-1.78;59.71;95398.13;5050777;28;20040;-72
2023/12/04 04:52:36;;;;;;;11.77;8.18;;;;;;;-1.87;58.11;95385.59;5052396;28;20036;-72
2023/12/04 04:55:02;;;;;;;8.07;5.55;;;;;;;-1.73;58.14;95392.88;5084661;28;20466;-72
2023/12/04 04:57:27;;;;;;;8.38;4.82;;;;;;;-1.64;58.01;95377.38;5087474;28;20414;-72
2023/12/04 04:59:53;;;;;;;7.80;5.22;;;;;;;-1.66;58.54;95407.16;5086246;28;20034;-72
2023/12/04 05:02:18;;;;;;;10.40;6.05;;;;;;;-2.03;57.69;95385.16;5070995;28;20029;-72
2023/12/04 05:04:43;;;;;;;8.60;4.97;;;;;;;-1.76;57.46;95396.34;5084261;28;20076;-72
2023/12/04 05:07:09;;;;;;;6.88;4.57;;;;;;;-1.83;58.02;95382.94;5087721;28;20024;-72
2023/12/04 05:09:34;;;;;;;7.70;4.50;;;;;;;-1.90;57.61;95394.16;5085682;28;20040;-72
2023/12/04 05:12:00;;;;;;;10.32;5.95;;;;;;;-2.01;57.24;95403.75;5069578;28;20032;-72
2023/12/04 05:14:27;;;;;;;9.65;6.55;;;;;;;-1.85;57.68;95397.41;5086222;28;20082;-72
2023/12/04 05:16:52;;;;;;;11.20;7.45;;;;;;;-1.72;56.41;95397.94;5091304;28;20421;-72
2023/12/04 05:19:17;;;;;;;8.25;5.63;;;;;;;-1.75;58.69;95382.75;5086528;28;20028;-72
2023/12/04 05:21:43;;;;;;;10.63;6.25;;;;;;;-1.71;56.99;95396.25;5087497;28;20036;-72
2023/12/04 05:24:08;;;;;;;8.02;4.80;;;;;;;-1.89;58.30;95407.75;5069249;28;20047;-72
2023/12/04 05:26:34;;;;;;;7.20;4.40;;;;;;;-1.89;57.17;95413.66;5117527;27;20040;-71
2023/12/04 05:28:59;;;;;;;5.78;3.78;;;;;;;-1.73;56.83;95411.53;5071172;28;20271;-72
2023/12/04 05:31:24;;;;;;;7.13;4.30;;;;;;;-1.57;56.57;95404.34;5069218;28;20425;-71
2023/12/04 05:33:50;;;;;;;7.00;4.55;;;;;;;-1.98;57.35;95372.28;5086772;28;20466;-71
2023/12/04 05:36:15;;;;;;;6.95;4.53;;;;;;;-1.63;56.49;95391.78;5086920;28;20036;-71
2023/12/04 05:38:41;;;;;;;5.65;4.32;;;;;;;-1.68;56.67;95401.25;5069174;28;20726;-71
2023/12/04 05:41:06;;;;;;;6.50;3.85;;;;;;;-1.60;56.42;95412.09;5069449;28;20028;-71
2023/12/04 05:43:31;;;;;;;8.68;5.15;;;;;;;-1.45;57.37;95414.25;5102534;28;20032;-71
2023/12/04 05:45:57;;;;;;;6.05;3.88;;;;;;;-1.48;56.25;95409.19;5084970;28;20032;-72
2023/12/04 05:48:22;;;;;;;6.78;4.32;;;;;;;-1.59;57.18;95426.47;5086857;28;20044;-73
2023/12/04 05:50:48;;;;;;;6.38;4.45;;;;;;;-1.37;56.40;95427.59;5085263;28;20020;-72
2023/12/04 05:53:13;;;;;;;7.35;4.82;;;;;;;-1.44;56.47;95415.91;5088949;28;20028;-72
2023/12/04 05:55:39;;;;;;;6.90;4.40;;;;;;;-1.36;56.71;95426.75;5086732;28;21288;-72
2023/12/04 05:58:04;;;;;;;7.20;4.32;;;;;;;-1.50;56.53;95416.06;5088253;28;20031;-72
2023/12/04 06:00:29;;;;;;;7.28;3.80;;;;;;;-1.39;55.63;95419.16;5089954;28;20032;-72
2023/12/04 06:02:55;;;;;;;6.25;4.00;;;;;;;-1.29;56.26;95418.91;5088500;28;20085;-72
2023/12/04 06:05:20;;;;;;;7.30;4.35;;;;;;;-1.35;57.33;95420.75;5071344;28;20077;-72
2023/12/04 06:07:46;;;;;;;6.90;4.55;;;;;;;-1.33;57.95;95410.53;5073281;28;20073;-72
2023/12/04 06:10:11;;;;;;;6.40;4.15;;;;;;;-1.48;56.95;95405.81;5107987;27;20073;-72
2023/12/04 06:12:36;;;;;;;4.90;3.35;;;;;;;-1.41;56.48;95428.56;5090630;28;20049;-72
2023/12/04 06:15:02;;;;;;;6.50;3.95;;;;;;;-1.52;57.80;95420.38;5090521;28;20024;-72
2023/12/04 06:17:27;;;;;;;6.53;4.22;;;;;;;-1.55;58.06;95433.19;5058876;28;20074;-71
2023/12/04 06:19:53;;;;;;;7.07;4.45;;;;;;;-1.89;59.73;95428.94;5075526;28;20032;-72
2023/12/04 06:22:21;;;;;;;8.65;5.30;;;;;;;-1.86;56.64;95436.50;5092703;28;20043;-70
2023/12/04 06:24:47;;;;;;;6.85;4.63;;;;;;;-1.83;57.26;95422.88;5087803;28;20039;-70
2023/12/04 06:27:14;;;;;;;7.45;5.03;;;;;;;-1.67;57.99;95444.53;5093751;28;20521;-70
2023/12/04 06:29:40;;;;;;;10.20;5.30;;;;;;;-1.77;57.60;95401.50;5090870;28;20047;-69
2023/12/04 06:32:06;;;;;;;24.50;17.98;;;;;;;-1.45;56.65;95452.47;5106307;28;20040;-70
2023/12/04 06:34:32;;;;;;;14.43;9.82;;;;;;;-1.47;56.50;95431.28;5113784;28;20031;-70
2023/12/04 06:36:57;;;;;;;25.52;16.23;;;;;;;-1.17;56.30;95441.53;5112429;28;20035;-70
2023/12/04 06:39:23;;;;;;;13.82;8.98;;;;;;;-0.99;56.34;95438.47;5089191;28;20597;-70
2023/12/04 06:41:48;;;;;;;11.05;6.20;;;;;;;-0.95;56.60;95455.38;5091038;28;20472;-70
2023/12/04 06:44:14;;;;;;;9.38;5.28;;;;;;;-0.84;56.96;95456.78;5074887;28;20036;-70
2023/12/04 06:46:39;;;;;;;32.92;19.30;;;;;;;-0.90;57.05;95434.81;5074836;28;20040;-73
2023/12/04 06:49:08;;;;;;;20.40;10.30;;;;;;;-1.03;56.22;95464.09;5074391;28;20036;-71
2023/12/04 06:51:34;;;;;;;13.45;7.15;;;;;;;-1.26;56.56;95429.03;5090662;28;20130;-71
2023/12/04 06:53:59;;;;;;;10.55;6.22;;;;;;;-0.75;56.34;95467.56;5092776;28;20024;-71
2023/12/04 06:56:25;;;;;;;9.93;6.30;;;;;;;-0.85;56.42;95455.94;5077558;28;20055;-73
2023/12/04 06:58:50;;;;;;;18.83;11.60;;;;;;;-1.02;56.49;95470.88;5063132;28;20097;-73
2023/12/04 07:01:16;;;;;;;11.23;7.68;;;;;;;-0.73;56.57;95470.06;5086597;28;20032;-73
2023/12/04 07:03:41;;;;;;;11.63;7.00;;;;;;;-0.78;56.53;95482.13;5067088;28;20039;-70
2023/12/04 07:06:07;;;;;;;24.73;15.77;;;;;;;-0.67;56.81;95475.00;5072533;28;20086;-71
2023/12/04 07:08:33;;;;;;;10.13;7.07;;;;;;;-0.79;56.23;95472.81;5090314;28;20104;-71
2023/12/04 07:10:58;;;;;;;10.45;7.25;;;;;;;-1.10;56.85;95486.41;5087651;28;20239;-71
2023/12/04 07:13:23;;;;;;;14.27;7.05;;;;;;;-1.19;55.93;95489.19;5107247;28;20466;-71
2023/12/04 07:15:49;;;;;;;12.10;5.93;;;;;;;-1.37;55.60;95488.78;5108508;28;20043;-71
2023/12/04 07:18:14;;;;;;;12.65;7.60;;;;;;;-1.32;56.98;95485.28;5089809;28;20038;-71
2023/12/04 07:20:40;;;;;;;11.98;7.05;;;;;;;-1.26;56.18;95478.31;5075324;28;20035;-71
2023/12/04 07:23:05;;;;;;;14.18;7.63;;;;;;;-1.24;56.06;95475.72;5109669;28;20028;-71
2023/12/04 07:25:30;;;;;;;18.02;8.07;;;;;;;-1.19;55.94;95476.44;5105233;28;20514;-71
2023/12/04 07:27:57;;;;;;;8.45;5.88;;;;;;;-1.22;55.55;95486.72;5102687;28;20023;-71
2023/12/04 07:30:24;;;;;;;9.88;5.20;;;;;;;-0.90;54.88;95491.78;5077750;28;20056;-71
2023/12/04 07:32:50;;;;;;;28.92;16.08;;;;;;;-0.75;54.50;95487.16;5092288;28;20028;-71
2023/12/04 07:35:16;;;;;;;13.32;7.57;;;;;;;-0.59;54.48;95497.75;5091989;28;20028;-71
2023/12/04 07:37:41;;;;;;;19.42;10.15;;;;;;;-0.60;55.48;95498.66;5074289;28;20082;-71
2023/12/04 07:40:08;;;;;;;14.75;8.73;;;;;;;-0.66;55.19;95497.09;5090638;28;20032;-71
2023/12/04 07:42:34;;;;;;;18.65;9.15;;;;;;;-0.67;55.62;95505.63;5101258;28;20043;-72
2023/12/04 07:44:59;;;;;;;21.10;12.52;;;;;;;-0.52;55.11;95484.78;5093392;28;20027;-71
2023/12/04 07:47:24;;;;;;;9.63;7.00;;;;;;;-0.46;54.82;95505.00;5099212;28;20028;-71
2023/12/04 07:49:50;;;;;;;24.92;10.30;;;;;;;-0.70;55.48;95498.06;5089898;28;20024;-71
2023/12/04 07:52:15;;;;;;;20.05;9.82;;;;;;;-0.42;54.32;95499.81;5103365;28;20417;-71
2023/12/04 07:54:41;;;;;;;21.63;10.95;;;;;;;-0.55;54.56;95496.81;5095607;28;20577;-72
2023/12/04 07:57:06;;;;;;;16.17;7.30;;;;;;;-0.46;54.50;95491.41;5103594;28;20043;-72
2023/12/04 07:59:31;;;;;;;11.38;6.35;;;;;;;-0.54;54.40;95501.00;5109773;28;20047;-72
2023/12/04 08:01:57;;;;;;;9.18;5.63;;;;;;;-0.62;54.22;95501.22;5111207;28;20031;-72
2023/12/04 08:04:23;;;;;;;10.73;6.25;;;;;;;-0.41;53.49;95473.44;5109376;28;20035;-72
2023/12/04 08:06:49;;;;;;;11.75;6.75;;;;;;;-0.32;53.45;95491.03;5110654;28;20031;-72
2023/12/04 08:09:15;;;;;;;12.02;7.57;;;;;;;-0.04;53.36;95498.69;5108859;28;20024;-72
2023/12/04 08:11:40;;;;;;;12.27;6.95;;;;;;;-0.17;53.39;95500.75;5093424;28;20085;-72
2023/12/04 08:14:06;;;;;;;9.65;6.22;;;;;;;-0.19;53.05;95497.44;5111891;28;20031;-72
2023/12/04 08:16:32;;;;;;;8.85;5.38;;;;;;;0.30;53.10;95507.84;5092726;28;20032;-72
2023/12/04 08:18:57;;;;;;;17.38;8.40;;;;;;;-0.03;53.36;95503.75;5111811;28;20039;-73
2023/12/04 08:21:23;;;;;;;20.58;9.15;;;;;;;-0.11;53.55;95509.97;5111718;28;20466;-73
2023/12/04 08:23:48;;;;;;;8.32;5.78;;;;;;;-0.42;53.69;95500.66;5110339;28;20035;-73
2023/12/04 08:26:15;;;;;;;9.82;5.47;;;;;;;-0.41;53.30;95506.63;5110356;28;20489;-73
2023/12/04 08:28:41;;;;;;;10.35;5.93;;;;;;;-0.55;53.16;95497.63;5076590;28;20028;-73
2023/12/04 08:31:10;;;;;;;8.77;5.22;;;;;;;-0.50;51.92;95487.31;5093571;28;20027;-73
2023/12/04 08:33:36;;;;;;;9.13;5.18;;;;;;;-0.35;51.97;95498.78;5111479;28;20464;-73
2023/12/04 08:36:01;;;;;;;10.05;5.40;;;;;;;-0.16;52.55;95496.50;5093327;28;20123;-74
2023/12/04 08:38:26;;;;;;;7.72;5.32;;;;;;;-0.13;52.51;95496.41;5110211;28;20027;-73
2023/12/04 08:40:53;;;;;;;11.30;5.63;;;;;;;0.25;52.45;95481.59;5110238;28;20028;-73
2023/12/04 08:43:18;;;;;;;20.77;12.13;;;;;;;0.69;51.77;95499.78;5093158;28;20477;-73
2023/12/04 08:45:45;;;;;;;9.38;6.03;;;;;;;0.77;51.87;95493.53;5111324;28;20085;-73
2023/12/04 08:48:10;;;;;;;13.27;8.25;;;;;;;1.00;51.12;95497.00;5093377;28;20079;-73
2023/12/04 08:50:37;;;;;;;14.05;7.22;;;;;;;0.97;49.81;95503.06;5093084;28;20036;-73
2023/12/04 08:53:03;;;;;;;16.13;8.43;;;;;;;1.26;49.24;95502.06;5110036;28;20563;-73
2023/12/04 08:55:29;;;;;;;15.18;9.18;;;;;;;1.39;47.62;95461.47;5092966;28;20066;-73
2023/12/04 08:57:54;;;;;;;9.25;6.15;;;;;;;1.45;46.96;95506.50;5110002;28;20028;-73
2023/12/04 09:00:19;;;;;;;13.43;7.22;;;;;;;1.23;48.05;95499.63;5110122;28;20024;-73
2023/12/04 09:02:45;;;;;;;7.80;5.28;;;;;;;0.95;47.94;95484.41;5109948;28;20031;-73
2023/12/04 09:05:10;;;;;;;8.35;5.57;;;;;;;0.91;47.71;95497.34;5109993;28;20413;-73
2023/12/04 09:07:36;;;;;;;8.38;5.50;;;;;;;1.22;47.33;95492.81;5109787;28;20043;-73
2023/12/04 09:10:02;;;;;;;7.85;4.75;;;;;;;1.33;48.03;95495.00;5093071;28;20035;-73
2023/12/04 09:12:27;;;;;;;10.88;4.93;;;;;;;1.37;48.31;95470.13;5110032;28;20039;-73
2023/12/04 09:14:53;;;;;;;10.65;6.72;;;;;;;1.88;46.15;95477.59;5078333;28;20032;-73
2023/12/04 09:17:20;;;;;;;10.10;6.53;;;;;;;1.97;46.89;95473.84;5070667;28;20032;-73
2023/12/04 09:19:45;;;;;;;11.98;6.38;;;;;;;1.99;48.01;95482.31;5070698;28;20058;-73
2023/12/04 09:22:11;;;;;;;8.35;4.55;;;;;;;1.62;45.33;95468.34;5087387;28;20521;-73
2023/12/04 09:24:36;;;;;;;8.40;5.03;;;;;;;1.73;45.15;95461.09;5087328;28;20398;-73
2023/12/04 09:27:01;;;;;;;8.27;5.10;;;;;;;1.70;45.04;95445.84;5089267;28;20043;-73
2023/12/04 09:29:27;;;;;;;8.00;5.05;;;;;;;1.41;44.86;95458.88;5092586;28;20055;-73
2023/12/04 09:31:53;;;;;;;9.23;5.00;;;;;;;1.61;45.74;95458.97;5076406;28;20552;-73
2023/12/04 09:34:20;;;;;;;7.13;4.32;;;;;;;1.25;44.74;95436.38;5094660;28;20034;-73
2023/12/04 09:36:46;;;;;;;11.95;5.53;;;;;;;1.49;45.26;95455.16;5093259;28;20035;-73
2023/12/04 09:39:11;;;;;;;5.70;3.97;;;;;;;1.77;45.07;95456.66;5059758;28;20107;-73
2023/12/04 09:41:37;;;;;;;6.82;4.63;;;;;;;1.80;45.23;95436.06;5059451;28;20054;-73
2023/12/04 09:44:03;;;;;;;7.03;4.43;;;;;;;1.83;44.38;95447.91;5094379;28;20608;-73
2023/12/04 09:46:28;;;;;;;8.93;5.32;;;;;;;1.90;45.64;95444.25;5093028;28;20060;-73
2023/12/04 09:48:54;;;;;;;8.13;3.92;;;;;;;1.69;43.76;95462.06;5076092;28;20474;-73
2023/12/04 09:51:19;;;;;;;6.85;4.05;;;;;;;1.84;44.02;95449.56;5059306;28;20028;-73
2023/12/04 09:53:47;;;;;;;8.68;5.38;;;;;;;1.64;44.54;95453.72;5059307;28;20456;-73
2023/12/04 09:56:12;;;;;;;8.93;4.75;;;;;;;1.74;44.74;95451.66;5059349;28;20032;-73
2023/12/04 09:58:39;;;;;;;8.98;4.78;;;;;;;1.86;44.32;95442.66;5059119;28;20031;-73
2023/12/04 10:01:05;;;;;;;10.70;6.63;;;;;;;2.33;42.93;95445.09;5092783;28;20040;-73
2023/12/04 10:03:31;;;;;;;16.05;6.45;;;;;;;2.28;43.16;95423.91;5075568;28;20035;-73
2023/12/04 10:05:57;;;;;;;7.38;4.60;;;;;;;2.37;43.62;95442.34;5093867;28;20028;-73
2023/12/04 10:08:22;;;;;;;7.57;4.38;;;;;;;1.99;44.10;95393.44;5075676;28;20043;-73
2023/12/04 10:10:47;;;;;;;7.45;3.95;;;;;;;2.22;43.75;95420.72;5093703;28;20024;-73
2023/12/04 10:13:13;;;;;;;7.68;4.43;;;;;;;2.56;42.76;95421.06;5093747;28;20020;-73
2023/12/04 10:15:48;;;;;;;7.25;4.90;;;;;;;2.56;44.27;95419.31;5092345;28;20031;-73
2023/12/04 10:18:31;;;;;;;6.57;4.45;;;;;;;2.10;43.32;95410.13;5075472;28;20074;-73
2023/12/04 10:20:57;;;;;;;7.53;4.80;;;;;;;2.03;44.32;95416.38;5075723;28;20032;-73
2023/12/04 10:23:22;;;;;;;8.85;5.10;;;;;;;2.61;43.40;95426.81;5058689;28;20776;-73
2023/12/04 10:25:50;;;;;;;6.28;4.35;;;;;;;2.33;42.90;95371.56;5109260;27;20060;-73
2023/12/04 10:28:16;;;;;;;8.38;5.40;;;;;;;2.30;43.95;95405.03;5092228;28;20573;-73
2023/12/04 10:30:41;;;;;;;24.00;12.32;;;;;;;2.47;43.93;95414.56;5075290;28;20059;-73
2023/12/04 10:33:07;;;;;;;14.35;7.75;;;;;;;2.86;43.88;95403.53;5058522;28;20060;-73
2023/12/04 10:35:36;;;;;;;15.48;9.13;;;;;;;3.30;43.50;95416.16;5075224;28;20106;-73
2023/12/04 10:38:02;;;;;;;14.25;7.25;;;;;;;3.24;43.02;95401.84;5074467;28;20474;-73
2023/12/04 10:40:29;;;;;;;8.85;5.20;;;;;;;2.87;43.59;95402.63;5075229;28;20032;-73
2023/12/04 10:43:08;;;;;;;8.82;5.13;;;;;;;2.66;43.40;95409.50;5091917;28;20028;-73
2023/12/04 10:45:34;;;;;;;16.00;10.10;;;;;;;2.88;43.39;95412.00;5091705;28;20610;-73
2023/12/04 10:48:00;;;;;;;17.13;5.75;;;;;;;2.41;43.41;95395.16;5058430;28;20039;-73
2023/12/04 10:50:25;;;;;;;8.73;4.47;;;;;;;2.79;43.59;95394.44;5058367;28;20036;-73
2023/12/04 10:52:53;;;;;;;7.97;5.13;;;;;;;2.93;42.62;95404.13;5075036;28;20116;-73
2023/12/04 10:55:19;;;;;;;10.27;5.57;;;;;;;2.52;44.29;95371.63;5075369;28;20024;-73
2023/12/04 10:57:46;;;;;;;10.15;5.45;;;;;;;2.53;44.49;95409.19;5091668;28;20031;-73
2023/12/04 11:00:16;;;;;;;10.10;5.65;;;;;;;2.38;44.17;95404.72;5092751;28;20100;-73
2023/12/04 11:02:46;;;;;;;8.68;5.13;;;;;;;2.23;44.76;95407.00;5075073;28;20047;-73
2023/12/04 11:05:16;;;;;;;7.65;4.85;;;;;;;2.29;44.35;95410.22;5091899;28;20727;-73
2023/12/04 11:07:53;;;;;;;9.63;4.65;;;;;;;2.26;44.69;95400.06;5075137;28;20062;-73
2023/12/04 11:10:25;;;;;;;8.13;4.93;;;;;;;2.23;44.13;95407.00;5076197;28;20032;-73
2023/12/04 11:12:54;;;;;;;8.13;4.47;;;;;;;2.55;42.99;95406.56;5091471;28;20143;-73
2023/12/04 11:15:19;;;;;;;7.68;5.10;;;;;;;2.62;43.66;95392.59;5091182;28;20024;-73
2023/12/04 11:17:47;;;;;;;8.45;5.13;;;;;;;2.62;43.83;95377.22;5074405;28;20144;-73
2023/12/04 11:20:16;;;;;;;10.25;7.22;;;;;;;2.83;44.94;95370.31;5074674;28;20395;-73
2023/12/04 11:22:42;;;;;;;8.48;5.65;;;;;;;2.73;44.95;95385.28;5092320;28;20464;-73
2023/12/04 11:25:07;;;;;;;8.07;5.82;;;;;;;2.44;44.91;95382.19;5057760;28;20024;-73